createdAt,value
2022-11-16T00:01:49.241Z,101286.31
2022-11-16T00:04:17.685Z,101289.88
2022-11-16T00:06:46.731Z,101287.93
2022-11-16T00:09:24.057Z,101291.21
2022-11-16T00:11:58.259Z,101290.13
2022-11-16T00:14:33.746Z,101291.49
2022-11-16T00:17:02.999Z,101290.50
2022-11-16T00:19:31.625Z,101290.83
2022-11-16T00:21:59.937Z,101283.50
2022-11-16T00:24:28.218Z,101283.73
2022-11-16T00:26:56.505Z,101284.43
2022-11-16T00:29:26.817Z,101279.45
2022-11-16T00:31:56.131Z,101276.99
2022-11-16T00:34:25.101Z,101277.27
2022-11-16T00:36:53.440Z,101283.56
2022-11-16T00:39:22.972Z,101286.17
2022-11-16T00:41:52.962Z,101287.60
2022-11-16T00:44:21.229Z,101270.70
2022-11-16T00:46:49.533Z,101284.78
2022-11-16T00:49:17.912Z,101285.28
2022-11-16T00:51:46.235Z,101287.54
2022-11-16T00:54:14.511Z,101287.76
2022-11-16T00:56:42.759Z,101289.73
2022-11-16T00:59:10.954Z,101289.64
2022-11-16T01:01:39.331Z,101287.23
2022-11-16T01:04:08.131Z,101291.81
2022-11-16T01:06:37.446Z,101299.43
2022-11-16T01:09:06.320Z,101292.08
2022-11-16T01:11:52.769Z,101289.65
2022-11-16T01:14:20.998Z,101289.18
2022-11-16T01:16:50.944Z,101290.00
2022-11-16T01:19:19.318Z,101289.20
2022-11-16T01:21:47.633Z,101287.47
2022-11-16T01:24:15.904Z,101294.50
2022-11-16T01:26:44.187Z,101291.94
2022-11-16T01:29:13.014Z,101297.30
2022-11-16T01:31:45.135Z,101300.42
2022-11-16T01:34:13.386Z,101302.23
2022-11-16T01:36:41.779Z,101303.20
2022-11-16T01:39:12.547Z,101298.02
2022-11-16T01:41:47.056Z,101298.67
2022-11-16T01:44:15.843Z,101299.16
2022-11-16T01:46:52.684Z,101299.05
2022-11-16T01:49:24.259Z,101295.98
2022-11-16T01:51:59.663Z,101291.36
2022-11-16T01:54:31.259Z,101289.86
2022-11-16T01:57:05.282Z,101286.02
2022-11-16T01:59:41.103Z,101283.16
2022-11-16T02:02:16.141Z,101282.70
2022-11-16T02:04:47.737Z,101275.65
2022-11-16T02:07:23.235Z,101271.69
2022-11-16T02:09:54.863Z,101276.10
2022-11-16T02:13:04.172Z,101276.28
2022-11-16T02:16:30.234Z,101278.92
2022-11-16T02:19:07.431Z,101278.54
2022-11-16T02:21:42.803Z,101282.73
2022-11-16T02:24:57.914Z,101282.20
2022-11-16T02:28:01.498Z,101277.38
2022-11-16T02:30:29.885Z,101275.21
2022-11-16T02:33:04.990Z,101273.77
2022-11-16T02:35:47.495Z,101274.59
2022-11-16T02:38:23.899Z,101268.74
2022-11-16T02:40:57.090Z,101262.92
2022-11-16T02:43:36.773Z,101257.08
2022-11-16T02:46:09.749Z,101255.89
2022-11-16T02:48:44.377Z,101254.05
2022-11-16T02:51:14.225Z,101240.19
2022-11-16T02:54:01.281Z,101253.77
2022-11-16T02:56:30.786Z,101255.14
2022-11-16T02:59:00.088Z,101255.61
2022-11-16T03:01:38.417Z,101255.84
2022-11-16T03:04:10.644Z,101257.71
2022-11-16T03:06:43.846Z,101257.33
2022-11-16T03:09:21.556Z,101254.27
2022-11-16T03:11:59.526Z,101248.16
2022-11-16T03:14:57.580Z,101246.13
2022-11-16T03:17:34.237Z,101246.62
2022-11-16T03:20:12.273Z,101241.50
2022-11-16T03:22:55.004Z,101239.92
2022-11-16T03:25:27.892Z,101240.15
2022-11-16T03:28:22.173Z,101238.18
2022-11-16T03:31:11.424Z,101241.48
2022-11-16T03:33:50.657Z,101244.86
2022-11-16T03:36:27.969Z,101243.10
2022-11-16T03:39:01.458Z,101245.86
2022-11-16T03:41:33.454Z,101241.95
2022-11-16T03:44:02.418Z,101248.52
2022-11-16T03:46:30.720Z,101247.56
2022-11-16T03:49:00.858Z,101252.15
2022-11-16T03:51:32.239Z,101245.15
2022-11-16T03:54:00.628Z,101251.18
2022-11-16T03:56:29.331Z,101249.95
2022-11-16T03:58:58.130Z,101251.21
2022-11-16T04:01:26.346Z,101254.86
2022-11-16T04:03:54.774Z,101256.86
2022-11-16T04:06:41.956Z,101260.36
2022-11-16T04:09:29.562Z,101256.86
2022-11-16T04:12:16.243Z,101262.08
2022-11-16T04:15:20.540Z,101260.83
2022-11-16T04:18:07.244Z,101266.59
2022-11-16T04:20:53.917Z,101258.95
2022-11-16T04:23:40.814Z,101257.54
2022-11-16T04:26:10.508Z,101261.00
2022-11-16T04:28:39.112Z,101262.02
2022-11-16T04:31:25.939Z,101259.52
2022-11-16T04:34:20.309Z,101262.05
2022-11-16T04:37:10.025Z,101255.52
2022-11-16T04:39:39.173Z,101237.44
2022-11-16T04:42:19.218Z,101251.27
2022-11-16T04:45:07.266Z,101250.88
2022-11-16T04:47:41.403Z,101253.91
2022-11-16T04:50:10.470Z,101255.77
2022-11-16T04:52:39.434Z,101259.33
2022-11-16T04:55:08.764Z,101258.42
2022-11-16T04:57:36.886Z,101254.23
2022-11-16T05:00:06.573Z,101252.91
2022-11-16T05:02:35.835Z,101250.66
2022-11-16T05:05:04.614Z,101250.40
2022-11-16T05:07:32.856Z,101251.65
2022-11-16T05:10:06.938Z,101243.30
2022-11-16T05:12:36.131Z,101250.40
2022-11-16T05:15:07.351Z,101231.99
2022-11-16T05:17:35.782Z,101246.85
2022-11-16T05:20:24.991Z,101246.48
2022-11-16T05:22:57.986Z,101231.11
2022-11-16T05:25:35.234Z,101242.02
2022-11-16T05:28:05.504Z,101244.19
2022-11-16T05:30:34.930Z,101247.48
2022-11-16T05:33:04.240Z,101246.34
2022-11-16T05:35:34.463Z,101247.39
2022-11-16T05:38:02.728Z,101248.05
2022-11-16T05:40:33.070Z,101250.23
2022-11-16T05:43:01.842Z,101250.61
2022-11-16T05:45:32.518Z,101256.73
2022-11-16T05:48:00.971Z,101259.96
2022-11-16T05:50:29.247Z,101256.36
2022-11-16T05:53:11.819Z,101257.23
2022-11-16T05:55:40.298Z,101262.07
2022-11-16T05:58:09.280Z,101269.71
2022-11-16T06:00:37.434Z,101267.52
2022-11-16T06:03:06.059Z,101266.98
2022-11-16T06:05:40.243Z,101264.14
2022-11-16T06:08:09.492Z,101264.47
2022-11-16T06:10:37.635Z,101266.97
2022-11-16T06:13:06.087Z,101267.73
2022-11-16T06:15:38.372Z,101267.52
2022-11-16T06:18:07.907Z,101268.54
2022-11-16T06:20:40.714Z,101276.48
2022-11-16T06:23:09.061Z,101272.30
2022-11-16T06:25:39.902Z,101276.11
2022-11-16T06:28:08.694Z,101283.27
2022-11-16T06:30:39.641Z,101278.55
2022-11-16T06:33:08.081Z,101285.05
2022-11-16T06:35:36.307Z,101281.48
2022-11-16T06:38:05.490Z,101281.57
2022-11-16T06:40:34.149Z,101282.52
2022-11-16T06:43:03.149Z,101286.91
2022-11-16T06:45:31.460Z,101284.02
2022-11-16T06:48:01.050Z,101286.90
2022-11-16T06:50:29.753Z,101290.27
2022-11-16T06:53:00.878Z,101295.42
2022-11-16T06:55:29.909Z,101297.55
2022-11-16T06:57:58.399Z,101298.99
2022-11-16T07:00:28.067Z,101297.68
2022-11-16T07:02:57.258Z,101298.05
2022-11-16T07:05:26.760Z,101295.77
2022-11-16T07:07:56.284Z,101297.88
2022-11-16T07:10:25.881Z,101298.35
2022-11-16T07:12:54.495Z,101300.21
2022-11-16T07:15:22.784Z,101295.59
2022-11-16T07:17:50.929Z,101299.27
2022-11-16T07:20:21.053Z,101300.34
2022-11-16T07:22:49.317Z,101300.50
2022-11-16T07:25:18.977Z,101299.88
2022-11-16T07:27:47.953Z,101301.36
2022-11-16T07:30:16.496Z,101305.95
2022-11-16T07:33:06.533Z,101304.39
2022-11-16T07:35:53.319Z,101304.69
2022-11-16T07:38:21.929Z,101301.73
2022-11-16T07:40:50.459Z,101304.09
2022-11-16T07:43:21.331Z,101301.08
2022-11-16T07:46:45.411Z,101299.79
2022-11-16T07:49:11.178Z,101297.98
2022-11-16T07:51:50.415Z,101294.70
2022-11-16T07:54:31.763Z,101297.52
2022-11-16T07:56:59.998Z,101293.55
2022-11-16T07:59:29.173Z,101297.22
2022-11-16T08:01:59.330Z,101299.19
2022-11-16T08:04:28.505Z,101301.45
2022-11-16T08:06:56.821Z,101298.45
2022-11-16T08:09:25.290Z,101302.73
2022-11-16T08:11:55.027Z,101305.92
2022-11-16T08:14:24.604Z,101302.05
2022-11-16T08:16:53.002Z,101307.09
2022-11-16T08:19:21.146Z,101303.14
2022-11-16T08:21:49.290Z,101305.14
2022-11-16T08:24:17.801Z,101310.64
2022-11-16T08:26:46.061Z,101293.51
2022-11-16T08:29:16.025Z,101308.05
2022-11-16T08:31:50.767Z,101296.71
2022-11-16T08:34:21.488Z,101305.42
2022-11-16T08:36:54.598Z,101305.91
2022-11-16T08:39:28.397Z,101310.37
2022-11-16T08:41:56.777Z,101313.39
2022-11-16T08:44:24.959Z,101322.25
2022-11-16T08:46:54.945Z,101319.30
2022-11-16T08:49:35.260Z,101315.41
2022-11-16T08:52:03.698Z,101319.91
2022-11-16T08:54:32.532Z,101308.55
2022-11-16T08:57:00.865Z,101323.09
2022-11-16T08:59:30.572Z,101320.89
2022-11-16T09:02:02.045Z,101321.16
2022-11-16T09:04:36.696Z,101321.70
2022-11-16T09:07:05.715Z,101323.41
2022-11-16T09:09:34.720Z,101328.33
2022-11-16T09:12:04.079Z,101323.81
2022-11-16T09:14:32.372Z,101327.13
2022-11-16T09:17:00.718Z,101323.55
2022-11-16T09:19:29.074Z,101334.88
2022-11-16T09:21:57.529Z,101330.76
2022-11-16T09:24:25.887Z,101333.56
2022-11-16T09:26:56.922Z,101333.92
2022-11-16T09:29:27.701Z,101328.45
2022-11-16T09:31:56.183Z,101327.91
2022-11-16T09:34:25.494Z,101326.45
2022-11-16T09:36:53.841Z,101324.60
2022-11-16T09:39:37.351Z,101326.27
2022-11-16T09:42:31.569Z,101318.35
2022-11-16T09:45:13.124Z,101320.32
2022-11-16T09:47:49.335Z,101313.23
2022-11-16T09:50:26.998Z,101319.30
2022-11-16T09:53:00.353Z,101310.14
2022-11-16T09:55:46.910Z,101310.81
2022-11-16T09:58:22.165Z,101309.36
2022-11-16T10:01:06.614Z,101311.01
2022-11-16T10:03:41.204Z,101310.20
2022-11-16T10:06:21.342Z,101310.48
2022-11-16T10:08:52.131Z,101311.96
2022-11-16T10:11:59.172Z,101313.44
2022-11-16T10:14:30.478Z,101312.94
2022-11-16T10:17:26.158Z,101314.66
2022-11-16T10:20:00.665Z,101316.05
2022-11-16T10:22:36.370Z,101311.11
2022-11-16T10:25:09.128Z,101312.96
2022-11-16T10:27:41.739Z,101320.58
2022-11-16T10:30:21.292Z,101319.66
2022-11-16T10:32:49.533Z,101322.60
2022-11-16T10:35:25.059Z,101320.10
2022-11-16T10:37:53.525Z,101321.10
2022-11-16T10:40:27.202Z,101316.94
2022-11-16T10:43:05.673Z,101314.11
2022-11-16T10:45:40.226Z,101315.94
2022-11-16T10:48:17.368Z,101312.38
2022-11-16T10:50:48.105Z,101316.36
2022-11-16T10:53:32.362Z,101312.03
2022-11-16T10:56:16.222Z,101311.18
2022-11-16T10:59:05.012Z,101305.57
2022-11-16T11:01:40.535Z,101311.55
2022-11-16T11:04:22.933Z,101306.02
2022-11-16T11:06:57.315Z,101286.05
2022-11-16T11:09:35.861Z,101300.55
2022-11-16T11:12:34.341Z,101305.41
2022-11-16T11:15:11.557Z,101305.66
2022-11-16T11:17:45.078Z,101299.02
2022-11-16T11:20:16.434Z,101304.73
2022-11-16T11:23:02.320Z,101310.89
2022-11-16T11:25:34.363Z,101308.13
2022-11-16T11:28:17.438Z,101309.48
2022-11-16T11:30:59.590Z,101305.58
2022-11-16T11:33:44.232Z,101305.58
2022-11-16T11:36:25.291Z,101300.09
2022-11-16T11:39:25.595Z,101298.69
2022-11-16T11:42:12.639Z,101298.59
2022-11-16T11:44:47.691Z,101298.58
2022-11-16T11:50:48.569Z,101301.72
2022-11-16T11:53:38.722Z,101299.44
2022-11-16T11:56:10.586Z,101308.19
2022-11-16T11:58:41.026Z,101309.10
2022-11-16T12:01:50.496Z,101308.92
2022-11-16T12:04:47.138Z,101305.39
2022-11-16T12:07:45.116Z,101307.74
2022-11-16T12:10:19.371Z,101312.20
2022-11-16T12:12:53.780Z,101305.23
2022-11-16T12:15:31.152Z,101301.34
2022-11-16T12:18:28.620Z,101302.06
2022-11-16T12:21:18.447Z,101294.81
2022-11-16T12:24:41.539Z,101294.44
2022-11-16T12:27:21.567Z,101294.94
2022-11-16T12:30:08.687Z,101296.20
2022-11-16T12:32:52.678Z,101282.02
2022-11-16T12:35:29.835Z,101304.05
2022-11-16T12:38:11.007Z,101305.33
2022-11-16T12:40:42.200Z,101300.48
2022-11-16T12:43:49.060Z,101295.91
2022-11-16T12:46:54.709Z,101297.10
2022-11-16T12:50:04.071Z,101294.73
2022-11-16T12:53:14.396Z,101294.61
2022-11-16T12:56:09.355Z,101293.34
2022-11-16T12:58:52.787Z,101285.42
2022-11-16T13:01:29.639Z,101286.05
2022-11-16T13:04:05.287Z,101283.37
2022-11-16T13:06:39.900Z,101271.00
2022-11-16T13:09:16.227Z,101281.56
2022-11-16T13:11:50.662Z,101281.72
2022-11-16T13:14:23.766Z,101283.98
2022-11-16T13:16:53.883Z,101285.77
2022-11-16T13:19:22.434Z,101283.80
2022-11-16T13:22:10.354Z,101286.71
2022-11-16T13:25:00.393Z,101287.93
2022-11-16T13:27:37.480Z,101289.27
2022-11-16T13:30:35.074Z,101286.64
2022-11-16T13:33:24.871Z,101287.19
2022-11-16T13:35:52.966Z,101289.29
2022-11-16T13:38:52.972Z,101286.69
2022-11-16T13:41:43.702Z,101282.01
2022-11-16T13:44:20.750Z,101280.88
2022-11-16T13:46:56.278Z,101282.30
2022-11-16T13:49:33.749Z,101281.19
2022-11-16T13:52:48.249Z,101283.42
2022-11-16T13:55:15.393Z,101278.36
2022-11-16T13:57:52.271Z,101281.08
2022-11-16T14:00:23.656Z,101271.11
2022-11-16T14:03:14.598Z,101281.45
2022-11-16T14:05:50.593Z,101279.30
2022-11-16T14:08:24.656Z,101274.56
2022-11-16T14:10:52.885Z,101287.65
2022-11-16T14:13:30.633Z,101289.11
2022-11-16T14:16:17.631Z,101286.16
2022-11-16T14:18:49.936Z,101286.95
2022-11-16T14:21:53.497Z,101282.91
2022-11-16T14:24:21.635Z,101284.36
2022-11-16T14:26:58.643Z,101284.52
2022-11-16T14:29:48.221Z,101285.92
2022-11-16T14:32:31.458Z,101283.02
2022-11-16T14:35:01.937Z,101282.13
2022-11-16T14:37:34.389Z,101282.80
2022-11-16T14:40:19.165Z,101284.00
2022-11-16T14:43:15.967Z,101284.98
2022-11-16T14:45:56.931Z,101278.94
2022-11-16T14:48:26.329Z,101277.95
2022-11-16T14:51:24.938Z,101280.13
2022-11-16T14:53:57.769Z,101280.66
2022-11-16T14:56:25.930Z,101282.33
2022-11-16T14:59:02.304Z,101283.59
2022-11-16T15:01:40.986Z,101287.84
2022-11-16T15:04:12.098Z,101290.27
2022-11-16T15:07:03.039Z,101285.77
2022-11-16T15:09:38.114Z,101291.03
2022-11-16T15:12:32.881Z,101291.80
2022-11-16T15:15:23.717Z,101289.19
2022-11-16T15:18:05.205Z,101288.52
2022-11-16T15:20:36.797Z,101287.09
2022-11-16T15:23:13.269Z,101283.92
2022-11-16T15:25:51.441Z,101287.85
2022-11-16T15:28:26.173Z,101288.62
2022-11-16T15:31:00.518Z,101291.13
2022-11-16T15:33:37.943Z,101288.42
2022-11-16T15:36:24.583Z,101290.13
2022-11-16T15:38:56.760Z,101290.54
2022-11-16T15:41:28.197Z,101290.23
2022-11-16T15:44:13.956Z,101288.64
2022-11-16T15:46:47.929Z,101287.20
2022-11-16T15:49:38.438Z,101283.95
2022-11-16T15:52:08.009Z,101224.84
2022-11-16T15:54:54.744Z,101251.75
2022-11-16T15:57:24.917Z,101281.08
2022-11-16T15:59:55.969Z,101285.58
2022-11-16T16:02:30.011Z,101283.88
2022-11-16T16:04:58.484Z,101286.95
2022-11-16T16:07:41.283Z,101290.27
2022-11-16T16:10:14.398Z,101287.90
2022-11-16T16:13:23.314Z,101270.06
2022-11-16T16:16:29.184Z,101287.27
2022-11-16T16:19:08.153Z,101268.81
2022-11-16T16:21:44.035Z,101287.01
2022-11-16T16:24:41.357Z,101283.54
2022-11-16T16:27:22.134Z,101276.42
2022-11-16T16:29:52.575Z,101281.30
2022-11-16T16:32:27.827Z,101275.13
2022-11-16T16:35:07.975Z,101275.92
2022-11-16T16:37:36.903Z,101270.98
2022-11-16T16:40:05.832Z,101279.92
2022-11-16T16:42:34.280Z,101285.98
2022-11-16T16:45:02.885Z,101292.30
2022-11-16T16:47:31.492Z,101294.73
2022-11-16T16:49:59.814Z,101295.02
2022-11-16T16:52:28.140Z,101288.44
2022-11-16T16:54:56.441Z,101294.20
2022-11-16T16:57:24.715Z,101299.33
2022-11-16T16:59:52.995Z,101281.04
2022-11-16T17:02:21.374Z,101294.39
2022-11-16T17:04:49.781Z,101293.16
2022-11-16T17:07:18.570Z,101290.85
2022-11-16T17:09:47.016Z,101290.98
2022-11-16T17:12:15.296Z,101291.25
2022-11-16T17:14:44.104Z,101291.59
2022-11-16T17:17:12.419Z,101294.10
2022-11-16T17:19:40.759Z,101292.39
2022-11-16T17:22:09.127Z,101285.50
2022-11-16T17:24:37.593Z,101272.33
2022-11-16T17:27:06.686Z,101282.06
2022-11-16T17:29:35.226Z,101278.55
2022-11-16T17:32:04.410Z,101280.23
2022-11-16T17:34:32.574Z,101264.19
2022-11-16T17:37:00.925Z,101268.71
2022-11-16T17:39:30.168Z,101272.23
2022-11-16T17:41:58.441Z,101285.23
2022-11-16T17:44:27.284Z,101291.88
2022-11-16T17:46:55.648Z,101288.80
2022-11-16T17:49:23.901Z,101293.20
2022-11-16T17:51:52.320Z,101298.34
2022-11-16T17:54:20.561Z,101295.79
2022-11-16T17:56:48.871Z,101296.38
2022-11-16T17:59:17.178Z,101289.02
2022-11-16T18:01:45.941Z,101298.98
2022-11-16T18:04:14.315Z,101299.54
2022-11-16T18:06:43.211Z,101281.58
2022-11-16T18:09:11.580Z,101299.23
2022-11-16T18:11:39.983Z,101298.89
2022-11-16T18:14:09.336Z,101296.33
2022-11-16T18:16:37.835Z,101296.11
2022-11-16T18:19:06.425Z,101290.11
2022-11-16T18:21:42.016Z,101291.27
2022-11-16T18:24:11.180Z,101293.85
2022-11-16T18:26:41.473Z,101286.55
2022-11-16T18:29:16.149Z,101290.41
2022-11-16T18:31:44.483Z,101277.42
2022-11-16T18:34:14.739Z,101291.55
2022-11-16T18:36:43.117Z,101289.75
2022-11-16T18:39:11.496Z,101292.31
2022-11-16T18:41:50.100Z,101280.96
2022-11-16T18:44:24.669Z,101291.27
2022-11-16T18:46:53.000Z,101287.52
2022-11-16T18:49:21.460Z,101287.29
2022-11-16T18:51:49.804Z,101288.23
2022-11-16T18:54:18.083Z,101286.42
2022-11-16T18:56:46.409Z,101280.44
2022-11-16T18:59:14.746Z,101283.52
2022-11-16T19:01:43.261Z,101285.67
2022-11-16T19:04:12.670Z,101286.33
2022-11-16T19:06:41.377Z,101288.92
2022-11-16T19:09:10.036Z,101287.05
2022-11-16T19:11:38.471Z,101291.14
2022-11-16T19:14:09.655Z,101287.63
2022-11-16T19:16:41.705Z,101289.70
2022-11-16T19:19:13.655Z,101292.75
2022-11-16T19:21:42.110Z,101286.18
2022-11-16T19:24:10.787Z,101247.86
2022-11-16T19:26:39.715Z,101287.31
2022-11-16T19:29:09.998Z,101287.30
2022-11-16T19:31:38.531Z,101281.25
2022-11-16T19:34:10.953Z,101287.34
2022-11-16T19:36:39.387Z,101285.09
2022-11-16T19:39:07.979Z,101282.42
2022-11-16T19:41:36.362Z,101290.29
2022-11-16T19:44:04.794Z,101296.13
2022-11-16T19:46:34.509Z,101295.91
2022-11-16T19:49:03.309Z,101293.85
2022-11-16T19:51:33.975Z,101292.35
2022-11-16T19:54:03.076Z,101292.58
2022-11-16T19:56:32.745Z,101286.11
2022-11-16T19:59:02.875Z,101287.38
2022-11-16T20:01:31.298Z,101285.05
2022-11-16T20:04:02.596Z,101288.20
2022-11-16T20:06:36.625Z,101288.67
2022-11-16T20:09:12.105Z,101288.73
2022-11-16T20:11:41.600Z,101290.77
2022-11-16T20:14:11.952Z,101288.84
2022-11-16T20:16:42.586Z,101289.73
2022-11-16T20:19:11.585Z,101293.89
2022-11-16T20:21:42.525Z,101294.09
2022-11-16T20:24:13.696Z,101296.68
2022-11-16T20:26:48.288Z,101299.17
2022-11-16T20:29:18.855Z,101297.73
2022-11-16T20:31:47.488Z,101297.92
2022-11-16T20:34:17.659Z,101298.89
2022-11-16T20:36:47.500Z,101304.31
2022-11-16T20:39:19.156Z,101287.10
2022-11-16T20:41:48.493Z,101309.05
2022-11-16T20:44:21.195Z,101309.96
2022-11-16T20:46:52.270Z,101315.09
2022-11-16T20:49:20.711Z,101315.47
2022-11-16T20:51:50.474Z,101316.77
2022-11-16T20:54:18.787Z,101321.77
2022-11-16T20:56:49.789Z,101318.98
2022-11-16T20:59:18.588Z,101318.95
2022-11-16T21:01:47.853Z,101319.12
2022-11-16T21:04:16.771Z,101321.77
2022-11-16T21:06:45.521Z,101321.63
2022-11-16T21:09:15.806Z,101309.73
2022-11-16T21:12:02.529Z,101328.37
2022-11-16T21:14:30.852Z,101315.75
2022-11-16T21:16:59.425Z,101328.61
2022-11-16T21:19:27.849Z,101327.61
2022-11-16T21:21:56.138Z,101326.05
2022-11-16T21:24:24.919Z,101329.08
2022-11-16T21:26:53.611Z,101326.77
2022-11-16T21:29:26.038Z,101328.90
2022-11-16T21:31:54.395Z,101324.27
2022-11-16T21:34:24.538Z,101322.75
2022-11-16T21:36:53.071Z,101320.73
2022-11-16T21:39:21.604Z,101318.81
2022-11-16T21:41:49.950Z,101318.11
2022-11-16T21:44:18.476Z,101322.42
2022-11-16T21:46:46.781Z,101317.38
2022-11-16T21:49:15.272Z,101312.66
2022-11-16T21:51:43.577Z,101308.73
2022-11-16T21:54:12.124Z,101308.77
2022-11-16T21:56:40.552Z,101315.88
2022-11-16T21:59:08.780Z,101316.81
2022-11-16T22:01:57.417Z,101316.92
2022-11-16T22:04:44.231Z,101320.09
2022-11-16T22:07:35.603Z,101320.38
2022-11-16T22:10:05.503Z,101322.34
2022-11-16T22:15:37.888Z,101321.46
2022-11-16T22:18:06.279Z,101323.77
2022-11-16T22:20:34.548Z,101325.58
2022-11-16T22:23:03.047Z,101319.99
2022-11-16T22:25:31.351Z,101319.64
2022-11-16T22:28:20.677Z,101325.16
2022-11-16T22:30:51.758Z,101320.85
2022-11-16T22:33:20.779Z,101319.91
2022-11-16T22:35:49.441Z,101321.45
2022-11-16T22:38:18.516Z,101324.08
2022-11-16T22:40:54.267Z,101323.05
2022-11-16T22:43:28.077Z,101324.37
2022-11-16T22:46:05.210Z,101318.10
2022-11-16T22:48:38.646Z,101317.25
2022-11-16T22:51:13.290Z,101316.58
2022-11-16T22:53:41.742Z,101324.67
2022-11-16T22:56:11.014Z,101324.36
2022-11-16T22:58:40.076Z,101324.31
2022-11-16T23:01:09.615Z,101332.29
2022-11-16T23:03:38.758Z,101326.34
2022-11-16T23:06:08.026Z,101326.51
2022-11-16T23:08:38.028Z,101325.81
2022-11-16T23:11:34.155Z,101321.70
2022-11-16T23:14:22.867Z,101314.84
2022-11-16T23:16:52.464Z,101313.82
2022-11-16T23:19:40.634Z,101312.41
2022-11-16T23:22:36.083Z,101310.64
2022-11-16T23:25:24.697Z,101307.42
2022-11-16T23:28:16.271Z,101309.80
2022-11-16T23:30:44.943Z,101301.70
2022-11-16T23:33:14.199Z,101300.69
2022-11-16T23:35:42.931Z,101300.15
2022-11-16T23:38:11.271Z,101296.59
2022-11-16T23:40:40.345Z,101296.50
2022-11-16T23:43:29.232Z,101290.23
2022-11-16T23:45:57.572Z,101294.77
2022-11-16T23:48:26.004Z,101294.81
2022-11-16T23:50:54.454Z,101296.20
2022-11-16T23:53:22.816Z,101295.63
2022-11-16T23:55:51.308Z,101294.75
2022-11-16T23:58:19.642Z,101295.02
